Time;durP1;ratioP1;P1;durP2;ratioP2;P2;SDS_P1;SDS_P2;PMS_P1;PMS_P2;Temp;Humidity;BMP_temperature;BMP_pressure;BME280_temperature;BME280_humidity;BME280_pressure;Samples;Min_cycle;Max_cycle;Signal;HPM_P1;HPM_P2
2023/10/05 00:01:56;;;;;;;;;4.00;4.00;;;;;;;;5049457;28;9293;-78
2023/10/05 00:04:26;;;;;;;;;5.00;3.67;;;;;;;;5042398;28;9318;-77
2023/10/05 00:06:54;;;;;;;;;5.67;4.00;;;;;;;;5052298;28;9366;-77
2023/10/05 00:09:24;;;;;;;;;4.00;4.00;;;;;;;;5051466;28;9256;-91
2023/10/05 00:11:54;;;;;;;;;3.00;3.00;;;;;;;;5049593;28;10104;-96
2023/10/05 00:14:24;;;;;;;;;4.67;4.00;;;;;;;;5050715;28;9421;-89
2023/10/05 00:16:54;;;;;;;;;2.00;2.00;;;;;;;;5050470;28;9319;-86
2023/10/05 00:19:22;;;;;;;;;5.33;4.33;;;;;;;;5050852;28;9290;-90
2023/10/05 00:21:51;;;;;;;;;3.00;3.00;;;;;;;;5055498;28;9244;-91
2023/10/05 00:24:29;;;;;;;;;3.67;3.67;;;;;;;;5053284;28;9328;-85
2023/10/05 00:26:58;;;;;;;;;2.00;2.00;;;;;;;;5041550;28;9410;-87
2023/10/05 00:29:28;;;;;;;;;2.33;2.33;;;;;;;;5049988;28;9320;-88
2023/10/05 00:31:58;;;;;;;;;2.67;2.67;;;;;;;;5050211;28;9229;-92
2023/10/05 00:34:28;;;;;;;;;5.33;3.67;;;;;;;;5050208;28;10021;-85
2023/10/05 00:36:59;;;;;;;;;2.00;2.00;;;;;;;;5051235;28;9497;-88
2023/10/05 00:39:30;;;;;;;;;3.00;3.00;;;;;;;;5052739;28;9467;-89
2023/10/05 00:42:08;;;;;;;;;3.00;3.00;;;;;;;;5055160;28;9438;-81
2023/10/05 00:44:36;;;;;;;;;2.25;2.25;;;;;;;;5054743;28;9344;-81
2023/10/05 00:47:05;;;;;;;;;2.00;2.00;;;;;;;;5053943;28;10385;-80
2023/10/05 00:49:42;;;;;;;;;3.75;2.75;;;;;;;;5053370;28;9322;-79
2023/10/05 00:52:14;;;;;;;;;3.00;3.00;;;;;;;;5054105;28;10152;-79
2023/10/05 00:54:48;;;;;;;;;4.33;0.00;;;;;;;;5056863;28;9604;-86
2023/10/05 00:57:19;;;;;;;;;3.50;2.50;;;;;;;;5057086;28;9325;-86
2023/10/05 00:59:47;;;;;;;;;3.75;2.00;;;;;;;;5054760;28;9489;-88
2023/10/05 01:02:21;;;;;;;;;5.33;2.00;;;;;;;;5048891;28;9455;-95
2023/10/05 01:04:56;;;;;;;;;2.00;2.00;;;;;;;;5050170;28;9551;-93
2023/10/05 01:07:43;;;;;;;;;3.00;3.00;;;;;;;;5038402;28;9404;-92
2023/10/05 01:10:41;;;;;;;;;3.00;2.00;;;;;;;;5048850;28;9458;-77
2023/10/05 01:13:30;;;;;;;;;4.25;3.00;;;;;;;;5049777;28;9389;-88
2023/10/05 01:15:59;;;;;;;;;2.67;2.67;;;;;;;;5049486;28;9617;-87
2023/10/05 01:18:27;;;;;;;;;2.33;2.00;;;;;;;;5049473;28;9435;-83
2023/10/05 01:20:57;;;;;;;;;3.00;3.00;;;;;;;;5051092;28;9627;-86
2023/10/05 01:23:37;;;;;;;;;3.00;3.00;;;;;;;;5050485;28;9432;-81
2023/10/05 01:26:05;;;;;;;;;2.00;2.00;;;;;;;;5054280;28;9316;-83
2023/10/05 01:28:32;;;;;;;;;4.00;4.00;;;;;;;;5044413;28;9487;-84
2023/10/05 01:31:04;;;;;;;;;4.00;2.75;;;;;;;;5052789;28;9479;-87
2023/10/05 01:33:31;;;;;;;;;5.00;4.00;;;;;;;;5049430;28;9460;-84
2023/10/05 01:35:58;;;;;;;;;4.33;3.00;;;;;;;;5047987;28;9420;-81
2023/10/05 01:38:28;;;;;;;;;5.00;3.75;;;;;;;;5046908;28;9307;-82
2023/10/05 01:40:58;;;;;;;;;3.00;3.00;;;;;;;;5047694;28;9399;-82
2023/10/05 01:43:28;;;;;;;;;2.33;2.33;;;;;;;;5048346;28;9316;-80
2023/10/05 01:45:56;;;;;;;;;3.00;3.00;;;;;;;;5047514;28;9401;-81
2023/10/05 01:48:27;;;;;;;;;3.50;3.50;;;;;;;;5052670;28;9522;-80
2023/10/05 01:50:55;;;;;;;;;3.00;1.67;;;;;;;;5052774;28;9508;-81
2023/10/05 01:53:22;;;;;;;;;2.33;2.33;;;;;;;;5052405;28;9346;-78
2023/10/05 01:55:50;;;;;;;;;4.25;4.25;;;;;;;;5052021;28;9424;-92
2023/10/05 01:58:31;;;;;;;;;3.50;3.50;;;;;;;;5060676;28;9544;-93
2023/10/05 02:00:58;;;;;;;;;3.50;3.25;;;;;;;;5058281;28;9522;-82
2023/10/05 02:03:26;;;;;;;;;3.00;3.00;;;;;;;;5056818;28;9393;-89
2023/10/05 02:06:05;;;;;;;;;4.25;3.00;;;;;;;;5053236;28;9398;-91
2023/10/05 02:08:33;;;;;;;;;2.33;2.33;;;;;;;;5052234;28;9490;-85
2023/10/05 02:11:03;;;;;;;;;3.25;3.25;;;;;;;;5053335;28;9328;-84
2023/10/05 02:13:32;;;;;;;;;6.00;3.25;;;;;;;;5052008;28;9468;-86
2023/10/05 02:16:00;;;;;;;;;2.33;2.00;;;;;;;;5052857;28;10363;-89
2023/10/05 02:18:30;;;;;;;;;4.33;2.67;;;;;;;;5052605;28;9408;-90
2023/10/05 02:21:07;;;;;;;;;3.00;3.00;;;;;;;;5053172;28;9444;-82
2023/10/05 02:23:41;;;;;;;;;3.00;3.00;;;;;;;;5055275;28;9320;-84
2023/10/05 02:26:23;;;;;;;;;2.33;2.33;;;;;;;;5055952;28;9429;-84
2023/10/05 02:28:52;;;;;;;;;2.00;2.00;;;;;;;;5057264;28;9382;-81
2023/10/05 02:31:20;;;;;;;;;2.33;2.33;;;;;;;;5056906;28;9341;-81
2023/10/05 02:33:47;;;;;;;;;3.00;3.00;;;;;;;;5057877;28;9398;-86
2023/10/05 02:36:20;;;;;;;;;5.00;2.00;;;;;;;;5057545;28;9429;-87
2023/10/05 02:38:53;;;;;;;;;4.33;2.00;;;;;;;;5052553;28;9416;-91
2023/10/05 02:41:25;;;;;;;;;5.00;3.00;;;;;;;;5049665;28;9525;-87
2023/10/05 02:43:53;;;;;;;;;2.00;2.00;;;;;;;;5051070;28;9335;-89
2023/10/05 02:46:24;;;;;;;;;3.00;3.00;;;;;;;;5051371;28;9283;-84
2023/10/05 02:48:51;;;;;;;;;2.67;2.67;;;;;;;;5051456;28;9321;-83
2023/10/05 02:51:20;;;;;;;;;2.00;2.00;;;;;;;;5051723;28;9267;-79
2023/10/05 02:53:49;;;;;;;;;3.00;3.00;;;;;;;;5049549;28;9356;-83
2023/10/05 02:56:22;;;;;;;;;5.25;3.00;;;;;;;;5049863;28;9322;-90
2023/10/05 02:59:02;;;;;;;;;4.50;2.75;;;;;;;;5051118;28;9469;-93
2023/10/05 03:01:32;;;;;;;;;3.00;3.00;;;;;;;;5052946;28;9467;-85
2023/10/05 03:04:03;;;;;;;;;3.00;3.00;;;;;;;;5057627;28;9329;-78
2023/10/05 03:06:30;;;;;;;;;3.00;3.00;;;;;;;;5047081;28;9314;-91
2023/10/05 03:09:06;;;;;;;;;7.00;3.75;;;;;;;;5054350;28;9486;-83
2023/10/05 03:11:37;;;;;;;;;3.00;2.00;;;;;;;;5053036;28;9729;-88
2023/10/05 03:14:06;;;;;;;;;3.00;3.00;;;;;;;;5051308;28;9403;-78
2023/10/05 03:16:42;;;;;;;;;5.00;5.00;;;;;;;;5050937;28;9520;-82
2023/10/05 03:19:12;;;;;;;;;2.33;2.33;;;;;;;;5051453;28;9335;-82
2023/10/05 03:21:40;;;;;;;;;3.75;2.25;;;;;;;;5054822;28;9346;-82
2023/10/05 03:24:13;;;;;;;;;5.00;4.00;;;;;;;;5055767;28;9470;-81
2023/10/05 03:26:41;;;;;;;;;3.00;3.00;;;;;;;;5051380;28;9360;-87
2023/10/05 03:29:11;;;;;;;;;4.75;4.50;;;;;;;;5050862;28;9307;-88
2023/10/05 03:31:43;;;;;;;;;3.00;3.00;;;;;;;;5050793;28;9537;-81
2023/10/05 03:34:11;;;;;;;;;3.00;3.00;;;;;;;;5053059;28;10192;-77
2023/10/05 03:36:38;;;;;;;;;4.00;4.00;;;;;;;;5053064;28;9426;-79
2023/10/05 03:39:07;;;;;;;;;4.00;2.67;;;;;;;;5052710;28;10295;-78
2023/10/05 03:41:38;;;;;;;;;6.50;4.75;;;;;;;;5051228;28;9551;-89
2023/10/05 03:44:07;;;;;;;;;3.00;3.00;;;;;;;;5050900;28;9562;-85
2023/10/05 03:46:36;;;;;;;;;4.33;2.33;;;;;;;;5049610;28;9430;-79
2023/10/05 03:49:06;;;;;;;;;4.67;4.67;;;;;;;;5044580;28;9419;-85
2023/10/05 03:51:37;;;;;;;;;2.33;2.33;;;;;;;;5038759;28;9499;-80
2023/10/05 03:54:07;;;;;;;;;4.00;3.00;;;;;;;;5049884;28;9489;-87
2023/10/05 03:56:36;;;;;;;;;3.33;3.33;;;;;;;;5050435;28;9402;-80
2023/10/05 03:59:03;;;;;;;;;3.67;3.67;;;;;;;;5049885;28;9509;-85
2023/10/05 04:01:31;;;;;;;;;3.00;3.00;;;;;;;;5050220;28;9337;-82
2023/10/05 04:04:04;;;;;;;;;2.00;2.00;;;;;;;;5049658;28;9389;-82
2023/10/05 04:06:32;;;;;;;;;4.00;4.00;;;;;;;;5053233;28;9405;-79
2023/10/05 04:09:06;;;;;;;;;3.00;3.00;;;;;;;;5076304;28;9537;-82
2023/10/05 04:11:34;;;;;;;;;3.33;3.33;;;;;;;;5065022;28;9403;-82
2023/10/05 04:14:03;;;;;;;;;4.00;4.00;;;;;;;;5056051;28;9411;-80
2023/10/05 04:16:34;;;;;;;;;4.00;3.00;;;;;;;;5053869;28;10235;-81
2023/10/05 04:19:04;;;;;;;;;3.00;3.00;;;;;;;;5055296;28;9399;-83
2023/10/05 04:21:32;;;;;;;;;3.00;3.00;;;;;;;;5050890;28;9563;-84
2023/10/05 04:24:03;;;;;;;;;5.50;4.00;;;;;;;;5036988;28;9592;-81
2023/10/05 04:26:37;;;;;;;;;7.75;6.25;;;;;;;;5048033;28;9577;-85
2023/10/05 04:29:04;;;;;;;;;3.00;3.00;;;;;;;;5049768;28;9605;-82
2023/10/05 04:31:35;;;;;;;;;2.00;2.00;;;;;;;;5048217;28;9426;-83
2023/10/05 04:34:11;;;;;;;;;1.00;1.00;;;;;;;;5049274;28;9630;-84
2023/10/05 04:36:39;;;;;;;;;3.00;3.00;;;;;;;;5048237;28;9730;-85
2023/10/05 04:39:07;;;;;;;;;4.50;2.50;;;;;;;;5053971;28;9630;-79
2023/10/05 04:41:35;;;;;;;;;2.75;2.75;;;;;;;;5065985;28;9769;-79
2023/10/05 04:44:06;;;;;;;;;2.00;2.00;;;;;;;;5051325;28;9769;-80
2023/10/05 04:46:34;;;;;;;;;2.00;2.00;;;;;;;;5048514;28;9533;-81
2023/10/05 04:49:08;;;;;;;;;6.00;3.75;;;;;;;;5047564;28;9859;-82
2023/10/05 04:51:39;;;;;;;;;3.00;3.00;;;;;;;;5048758;28;9781;-83
2023/10/05 04:54:10;;;;;;;;;2.75;2.75;;;;;;;;5048623;28;9882;-82
2023/10/05 04:56:43;;;;;;;;;4.25;3.25;;;;;;;;5046547;28;9866;-80
2023/10/05 04:59:36;;;;;;;;;2.50;2.50;;;;;;;;5048071;28;9842;-81
2023/10/05 05:02:12;;;;;;;;;5.00;3.00;;;;;;;;5047555;28;9813;-80
2023/10/05 05:05:04;;;;;;;;;4.00;3.00;;;;;;;;5047880;28;10661;-80
2023/10/05 05:07:33;;;;;;;;;2.25;2.25;;;;;;;;5048405;28;10114;-82
2023/10/05 05:10:06;;;;;;;;;2.00;2.00;;;;;;;;5060626;28;10051;-79
2023/10/05 05:12:36;;;;;;;;;3.50;3.50;;;;;;;;5048541;28;10092;-75
2023/10/05 05:15:07;;;;;;;;;3.25;2.00;;;;;;;;5048590;28;10091;-74
2023/10/05 05:17:40;;;;;;;;;4.00;3.25;;;;;;;;5048233;28;10118;-73
2023/10/05 05:20:11;;;;;;;;;2.00;2.00;;;;;;;;5046950;28;10121;-77
2023/10/05 05:22:46;;;;;;;;;3.00;3.00;;;;;;;;5047550;28;10112;-74
2023/10/05 05:25:15;;;;;;;;;3.00;3.00;;;;;;;;5048019;28;10063;-74
2023/10/05 05:27:45;;;;;;;;;4.00;4.00;;;;;;;;5047827;28;10098;-73
2023/10/05 05:30:23;;;;;;;;;3.25;2.00;;;;;;;;5047135;28;10300;-84
2023/10/05 05:32:53;;;;;;;;;2.25;2.25;;;;;;;;5047475;28;10289;-80
2023/10/05 05:35:20;;;;;;;;;5.00;5.00;;;;;;;;5036713;28;10274;-76
2023/10/05 05:37:49;;;;;;;;;3.00;3.00;;;;;;;;5047743;28;10254;-78
2023/10/05 05:40:19;;;;;;;;;2.00;2.00;;;;;;;;5048818;28;10326;-80
2023/10/05 05:42:46;;;;;;;;;2.00;2.00;;;;;;;;5050104;28;10168;-73
2023/10/05 05:45:16;;;;;;;;;4.00;4.00;;;;;;;;5051598;28;10162;-73
2023/10/05 05:47:45;;;;;;;;;2.50;2.50;;;;;;;;5049657;28;10431;-77
2023/10/05 05:50:17;;;;;;;;;3.75;2.75;;;;;;;;5050487;28;10257;-78
2023/10/05 05:52:46;;;;;;;;;4.00;3.00;;;;;;;;5050878;28;10235;-73
2023/10/05 05:55:20;;;;;;;;;4.50;3.00;;;;;;;;5051388;28;10304;-74
2023/10/05 05:57:47;;;;;;;;;3.00;3.00;;;;;;;;5049985;28;10347;-72
2023/10/05 06:00:18;;;;;;;;;3.00;3.00;;;;;;;;5051402;28;10323;-79
2023/10/05 06:02:47;;;;;;;;;3.75;2.25;;;;;;;;5047558;28;10321;-84
2023/10/05 06:05:16;;;;;;;;;2.00;2.00;;;;;;;;5048370;28;11130;-80
2023/10/05 06:07:43;;;;;;;;;5.50;4.00;;;;;;;;5047272;28;10270;-85
2023/10/05 06:10:13;;;;;;;;;3.00;3.00;;;;;;;;5046969;28;10462;-83
2023/10/05 06:12:42;;;;;;;;;3.00;3.00;;;;;;;;5036018;28;10312;-76
2023/10/05 06:15:13;;;;;;;;;4.00;4.00;;;;;;;;5050867;28;10375;-80
2023/10/05 06:17:40;;;;;;;;;2.25;2.25;;;;;;;;5051988;28;10411;-80
2023/10/05 06:20:13;;;;;;;;;3.25;3.25;;;;;;;;5050016;28;10338;-81
2023/10/05 06:22:41;;;;;;;;;3.25;3.25;;;;;;;;5056035;28;10580;-78
2023/10/05 06:25:12;;;;;;;;;6.00;4.25;;;;;;;;5049563;28;10314;-80
2023/10/05 06:27:54;;;;;;;;;4.00;4.00;;;;;;;;5047353;28;10408;-84
2023/10/05 06:30:23;;;;;;;;;2.00;2.00;;;;;;;;5045894;28;10485;-77
2023/10/05 06:32:50;;;;;;;;;3.00;3.00;;;;;;;;5048307;28;10338;-79
2023/10/05 06:35:21;;;;;;;;;5.75;4.00;;;;;;;;5039557;28;10215;-90
2023/10/05 06:37:49;;;;;;;;;5.00;5.00;;;;;;;;5051052;28;10359;-71
2023/10/05 06:40:21;;;;;;;;;4.00;4.00;;;;;;;;5053042;28;10296;-94
2023/10/05 06:42:52;;;;;;;;;6.00;6.00;;;;;;;;5051262;28;10241;-71
2023/10/05 06:45:20;;;;;;;;;5.75;5.75;;;;;;;;5052126;28;10304;-81
2023/10/05 06:47:50;;;;;;;;;5.25;5.25;;;;;;;;5057234;28;10090;-83
2023/10/05 06:50:18;;;;;;;;;5.75;4.75;;;;;;;;5059986;28;9775;-82
2023/10/05 06:52:48;;;;;;;;;5.00;5.00;;;;;;;;5055311;28;9616;-78
2023/10/05 06:55:18;;;;;;;;;5.67;4.00;;;;;;;;5052197;28;9399;-80
2023/10/05 06:57:45;;;;;;;;;5.33;5.33;;;;;;;;5051161;28;9337;-79
2023/10/05 07:00:20;;;;;;;;;3.67;3.67;;;;;;;;5050028;28;9527;-75
2023/10/05 07:02:49;;;;;;;;;10.33;6.67;;;;;;;;5050585;28;9265;-78
2023/10/05 07:05:17;;;;;;;;;3.33;3.33;;;;;;;;5050716;28;9304;-78
2023/10/05 07:07:44;;;;;;;;;5.67;5.33;;;;;;;;5063188;28;9405;-84
2023/10/05 07:10:14;;;;;;;;;5.25;5.25;;;;;;;;5050592;28;9468;-86
2023/10/05 07:12:44;;;;;;;;;5.67;4.33;;;;;;;;5050309;28;9584;-76
2023/10/05 07:15:12;;;;;;;;;5.00;5.00;;;;;;;;5050998;28;9405;-79
2023/10/05 07:17:39;;;;;;;;;6.67;5.67;;;;;;;;5050809;28;9302;-75
2023/10/05 07:20:11;;;;;;;;;8.67;6.00;;;;;;;;5053487;28;10029;-79
2023/10/05 07:22:41;;;;;;;;;5.00;5.00;;;;;;;;5052130;28;9257;-78
2023/10/05 07:25:10;;;;;;;;;8.67;6.00;;;;;;;;5050787;28;9010;-79
2023/10/05 07:27:38;;;;;;;;;8.33;6.33;;;;;;;;5051893;28;9086;-81
2023/10/05 07:30:08;;;;;;;;;7.00;7.00;;;;;;;;5052123;28;9037;-73
2023/10/05 07:32:35;;;;;;;;;11.00;7.75;;;;;;;;5054726;28;9085;-75
2023/10/05 07:35:05;;;;;;;;;10.00;8.00;;;;;;;;5054572;28;9419;-75
2023/10/05 07:37:34;;;;;;;;;10.50;10.50;;;;;;;;5053825;28;8835;-72
2023/10/05 07:40:01;;;;;;;;;7.75;6.50;;;;;;;;5053524;28;8871;-78
2023/10/05 07:42:29;;;;;;;;;8.50;8.50;;;;;;;;5053653;28;8889;-88
2023/10/05 07:44:56;;;;;;;;;7.75;6.75;;;;;;;;5051236;28;8889;-85
2023/10/05 07:47:24;;;;;;;;;11.50;8.25;;;;;;;;5050483;28;8859;-84
2023/10/05 07:49:53;;;;;;;;;6.00;6.00;;;;;;;;5052064;28;9692;-82
2023/10/05 07:52:21;;;;;;;;;9.75;9.75;;;;;;;;5055996;28;8994;-71
2023/10/05 07:54:52;;;;;;;;;11.25;7.50;;;;;;;;5041012;28;8865;-84
2023/10/05 07:57:19;;;;;;;;;7.50;6.25;;;;;;;;5051244;28;8886;-80
2023/10/05 07:59:47;;;;;;;;;7.00;7.00;;;;;;;;5050284;28;8973;-88
2023/10/05 08:02:14;;;;;;;;;7.75;6.25;;;;;;;;5048925;28;8826;-84
2023/10/05 08:04:43;;;;;;;;;4.50;4.50;;;;;;;;5049306;28;8863;-78
2023/10/05 08:07:11;;;;;;;;;9.00;8.75;;;;;;;;5048842;28;8936;-83
2023/10/05 08:09:42;;;;;;;;;11.25;9.25;;;;;;;;5049429;28;8847;-79
2023/10/05 08:12:12;;;;;;;;;9.00;9.00;;;;;;;;5048514;28;8874;-78
2023/10/05 08:14:40;;;;;;;;;7.25;7.25;;;;;;;;5049635;28;8847;-78
2023/10/05 08:17:07;;;;;;;;;9.00;7.00;;;;;;;;5049028;28;8957;-77
2023/10/05 08:19:34;;;;;;;;;10.75;7.75;;;;;;;;5049489;28;8885;-74
2023/10/05 08:22:02;;;;;;;;;8.50;7.25;;;;;;;;5050973;28;8874;-80
2023/10/05 08:24:31;;;;;;;;;6.00;6.00;;;;;;;;5052220;28;8871;-79
2023/10/05 08:26:58;;;;;;;;;9.25;8.50;;;;;;;;5047983;28;8885;-81
2023/10/05 08:29:28;;;;;;;;;8.50;6.75;;;;;;;;5049398;28;8905;-80
2023/10/05 08:31:55;;;;;;;;;7.00;6.00;;;;;;;;5047158;28;8821;-77
2023/10/05 08:34:22;;;;;;;;;6.50;6.50;;;;;;;;5048887;28;8990;-80
2023/10/05 08:36:53;;;;;;;;;8.50;7.00;;;;;;;;5048038;28;8823;-79
2023/10/05 08:39:22;;;;;;;;;7.75;7.50;;;;;;;;5049090;28;8855;-75
2023/10/05 08:41:54;;;;;;;;;11.25;8.50;;;;;;;;5048642;28;8851;-74
2023/10/05 08:44:26;;;;;;;;;8.50;8.50;;;;;;;;5047671;28;8875;-72
2023/10/05 08:46:57;;;;;;;;;10.00;8.00;;;;;;;;5048716;28;8900;-75
2023/10/05 08:49:26;;;;;;;;;8.00;8.00;;;;;;;;5047944;28;8946;-76
2023/10/05 08:51:53;;;;;;;;;16.75;10.50;;;;;;;;5048764;28;8867;-82
2023/10/05 08:54:27;;;;;;;;;8.50;8.50;;;;;;;;5051212;28;8858;-78
2023/10/05 08:56:57;;;;;;;;;9.00;7.25;;;;;;;;5049826;28;8859;-80
2023/10/05 08:59:26;;;;;;;;;10.50;9.25;;;;;;;;5048716;28;8843;-76
2023/10/05 09:01:59;;;;;;;;;7.75;7.00;;;;;;;;5047771;28;8898;-76
2023/10/05 09:04:43;;;;;;;;;9.50;8.00;;;;;;;;5048083;28;8843;-75
2023/10/05 09:07:11;;;;;;;;;8.25;7.25;;;;;;;;5048152;28;8865;-78
2023/10/05 09:09:51;;;;;;;;;9.25;7.25;;;;;;;;5048575;28;8869;-76
2023/10/05 09:12:32;;;;;;;;;11.25;7.50;;;;;;;;5049885;28;8851;-80
2023/10/05 09:15:18;;;;;;;;;9.25;7.50;;;;;;;;5051054;28;8843;-78
2023/10/05 09:18:09;;;;;;;;;10.25;8.75;;;;;;;;5041121;28;8867;-77
2023/10/05 09:20:38;;;;;;;;;7.00;7.00;;;;;;;;5049984;28;8925;-80
2023/10/05 09:23:07;;;;;;;;;11.00;9.00;;;;;;;;5051513;28;8897;-79
2023/10/05 09:25:36;;;;;;;;;9.00;7.25;;;;;;;;5053344;28;8839;-79
2023/10/05 09:28:13;;;;;;;;;10.50;8.50;;;;;;;;5051584;28;8891;-82
2023/10/05 09:30:55;;;;;;;;;7.00;7.00;;;;;;;;5051172;28;8790;-85
2023/10/05 09:33:25;;;;;;;;;7.00;7.00;;;;;;;;5048234;28;8851;-80
2023/10/05 09:35:55;;;;;;;;;7.50;5.50;;;;;;;;5047781;28;8970;-79
2023/10/05 09:38:23;;;;;;;;;8.00;7.00;;;;;;;;5047617;28;8855;-80
2023/10/05 09:40:53;;;;;;;;;6.25;6.25;;;;;;;;5048032;28;8863;-79
2023/10/05 09:43:22;;;;;;;;;7.50;7.50;;;;;;;;5048127;28;8937;-84
2023/10/05 09:45:52;;;;;;;;;7.50;7.00;;;;;;;;5047647;28;8882;-78
2023/10/05 09:48:25;;;;;;;;;10.50;10.00;;;;;;;;5037418;28;8862;-86
2023/10/05 09:50:53;;;;;;;;;7.50;7.50;;;;;;;;5047368;28;8827;-76
2023/10/05 09:53:23;;;;;;;;;6.00;4.75;;;;;;;;5048051;28;8839;-81
2023/10/05 09:55:53;;;;;;;;;5.00;5.00;;;;;;;;5050017;28;8851;-82
2023/10/05 09:58:21;;;;;;;;;7.00;7.00;;;;;;;;5053486;28;8828;-86
2023/10/05 10:00:55;;;;;;;;;6.50;6.50;;;;;;;;5050406;28;8796;-78
2023/10/05 10:03:22;;;;;;;;;6.50;6.50;;;;;;;;5048024;28;8858;-80
2023/10/05 10:05:53;;;;;;;;;5.75;5.75;;;;;;;;5046957;28;9593;-77
2023/10/05 10:08:23;;;;;;;;;9.50;6.75;;;;;;;;5050019;28;8855;-80
2023/10/05 10:11:01;;;;;;;;;9.25;8.25;;;;;;;;5050909;28;8874;-78
2023/10/05 10:13:37;;;;;;;;;7.25;7.25;;;;;;;;5050948;28;8900;-76
2023/10/05 10:16:17;;;;;;;;;6.75;5.75;;;;;;;;5052031;28;8875;-76
2023/10/05 10:18:45;;;;;;;;;7.75;6.25;;;;;;;;5051018;28;8928;-82
2023/10/05 10:21:24;;;;;;;;;6.75;6.50;;;;;;;;5053497;28;8875;-75
2023/10/05 10:24:03;;;;;;;;;9.00;7.00;;;;;;;;5051171;28;8854;-72
2023/10/05 10:26:31;;;;;;;;;5.00;3.75;;;;;;;;5051702;28;8855;-73
2023/10/05 10:29:05;;;;;;;;;4.00;4.00;;;;;;;;5053446;28;8866;-80
2023/10/05 10:31:42;;;;;;;;;5.25;4.00;;;;;;;;5051242;28;8830;-77
2023/10/05 10:34:18;;;;;;;;;4.25;4.25;;;;;;;;5052267;28;8847;-79
2023/10/05 10:36:55;;;;;;;;;5.00;5.00;;;;;;;;5050274;28;8865;-79
2023/10/05 10:39:24;;;;;;;;;7.25;6.00;;;;;;;;5051030;28;8827;-75
2023/10/05 10:42:04;;;;;;;;;3.50;3.50;;;;;;;;5039825;28;8859;-72
2023/10/05 10:44:46;;;;;;;;;4.25;2.75;;;;;;;;5050583;28;9638;-76
2023/10/05 10:47:15;;;;;;;;;4.00;3.00;;;;;;;;5050894;28;8851;-71
2023/10/05 10:49:43;;;;;;;;;2.75;2.75;;;;;;;;5050554;28;8843;-76
2023/10/05 10:52:12;;;;;;;;;4.75;2.75;;;;;;;;5064283;28;8856;-81
2023/10/05 10:54:45;;;;;;;;;2.75;2.75;;;;;;;;5053029;28;8851;-74
2023/10/05 10:57:20;;;;;;;;;4.00;2.40;;;;;;;;5054776;28;8994;-75
2023/10/05 11:00:18;;;;;;;;;3.00;3.00;;;;;;;;5042386;28;8851;-79
2023/10/05 11:02:38;;;;;;;;;2.00;2.00;;;;;;;;5053294;28;8803;-81
2023/10/05 11:05:05;;;;;;;;;2.80;2.80;;;;;;;;5053707;28;8889;-83
2023/10/05 11:07:34;;;;;;;;;3.00;3.00;;;;;;;;5052263;28;8863;-82
2023/10/05 11:10:04;;;;;;;;;1.00;1.00;;;;;;;;5050906;28;8858;-79
2023/10/05 11:12:33;;;;;;;;;3.20;1.20;;;;;;;;5050237;28;8871;-80
2023/10/05 11:15:11;;;;;;;;;1.40;1.40;;;;;;;;5050204;28;8863;-78
2023/10/05 11:17:45;;;;;;;;;6.20;3.20;;;;;;;;5050187;28;8858;-77
2023/10/05 11:20:23;;;;;;;;;4.40;2.60;;;;;;;;5049163;28;9493;-83
2023/10/05 11:22:56;;;;;;;;;2.00;2.00;;;;;;;;5050116;28;8847;-78
2023/10/05 11:25:31;;;;;;;;;2.60;2.60;;;;;;;;5049484;28;8854;-74
2023/10/05 11:27:59;;;;;;;;;3.20;2.60;;;;;;;;5048499;28;8851;-81
2023/10/05 11:30:41;;;;;;;;;2.80;1.80;;;;;;;;5051087;28;8762;-80
2023/10/05 11:33:15;;;;;;;;;2.80;2.80;;;;;;;;5052156;28;8921;-83
2023/10/05 11:35:51;;;;;;;;;3.20;3.00;;;;;;;;5049969;28;8871;-78
2023/10/05 11:38:26;;;;;;;;;4.00;3.00;;;;;;;;5049339;28;8859;-80
2023/10/05 11:40:56;;;;;;;;;3.00;3.00;;;;;;;;5049759;28;8882;-78
2023/10/05 11:43:23;;;;;;;;;4.80;2.80;;;;;;;;5049583;28;8839;-81
2023/10/05 11:45:58;;;;;;;;;1.80;1.60;;;;;;;;5049548;28;8863;-80
2023/10/05 11:48:40;;;;;;;;;2.80;2.80;;;;;;;;5049905;28;8858;-79
2023/10/05 11:51:11;;;;;;;;;2.60;2.60;;;;;;;;5049049;28;8843;-76
2023/10/05 11:53:43;;;;;;;;;3.20;2.20;;;;;;;;5049117;28;8850;-81
2023/10/05 11:56:10;;;;;;;;;1.80;1.80;;;;;;;;5049027;28;9641;-72
2023/10/05 11:58:40;;;;;;;;;3.60;2.80;;;;;;;;5048954;28;8855;-74
2023/10/05 12:01:08;;;;;;;;;3.20;2.00;;;;;;;;5047901;28;8811;-76
2023/10/05 12:03:43;;;;;;;;;2.40;2.40;;;;;;;;5050071;28;8935;-74
2023/10/05 12:06:11;;;;;;;;;2.00;2.00;;;;;;;;5038176;28;8843;-74
2023/10/05 12:08:41;;;;;;;;;2.80;2.80;;;;;;;;5048016;28;8863;-73
2023/10/05 12:11:10;;;;;;;;;1.20;1.20;;;;;;;;5048866;28;8843;-73
2023/10/05 12:13:38;;;;;;;;;2.00;2.00;;;;;;;;5048071;28;8900;-77
2023/10/05 12:16:11;;;;;;;;;1.80;1.80;;;;;;;;5050635;28;8867;-77
2023/10/05 12:18:41;;;;;;;;;1.00;1.00;;;;;;;;5048382;28;8925;-81
2023/10/05 12:21:10;;;;;;;;;1.80;1.80;;;;;;;;5048914;28;8998;-76
2023/10/05 12:23:39;;;;;;;;;1.20;1.20;;;;;;;;5047987;28;8859;-73
2023/10/05 12:26:10;;;;;;;;;0.60;0.60;;;;;;;;5049302;28;8855;-77
2023/10/05 12:28:40;;;;;;;;;0.80;0.80;;;;;;;;5048196;28;8893;-77
2023/10/05 12:31:09;;;;;;;;;2.20;2.20;;;;;;;;5048291;28;8810;-74
2023/10/05 12:33:39;;;;;;;;;1.00;1.00;;;;;;;;5049102;28;8887;-74
2023/10/05 12:36:08;;;;;;;;;1.20;1.20;;;;;;;;5051011;28;8839;-74
2023/10/05 12:38:36;;;;;;;;;2.20;0.40;;;;;;;;5049032;28;8865;-78
2023/10/05 12:41:13;;;;;;;;;1.00;1.00;;;;;;;;5051929;28;8862;-72
2023/10/05 12:43:42;;;;;;;;;2.00;2.00;;;;;;;;5050546;28;8862;-80
2023/10/05 12:46:10;;;;;;;;;2.40;2.40;;;;;;;;5050648;28;8924;-83
2023/10/05 12:48:38;;;;;;;;;1.20;1.20;;;;;;;;5050727;28;8847;-75
2023/10/05 12:51:07;;;;;;;;;0.80;0.80;;;;;;;;5048347;28;8871;-81
2023/10/05 12:53:35;;;;;;;;;1.80;1.80;;;;;;;;5049073;28;8866;-73
2023/10/05 12:56:03;;;;;;;;;1.40;1.40;;;;;;;;5049403;28;8862;-75
2023/10/05 12:58:32;;;;;;;;;1.00;1.00;;;;;;;;5048689;28;9049;-76
2023/10/05 13:01:07;;;;;;;;;0.40;0.40;;;;;;;;5047745;28;8826;-82
2023/10/05 13:03:37;;;;;;;;;3.00;1.40;;;;;;;;5048881;28;8850;-77
2023/10/05 13:06:10;;;;;;;;;1.40;1.40;;;;;;;;5050886;28;8889;-83
2023/10/05 13:08:42;;;;;;;;;4.40;1.80;;;;;;;;5053043;28;8843;-77
2023/10/05 13:11:11;;;;;;;;;4.20;2.00;;;;;;;;5050358;28;8913;-80
2023/10/05 13:13:39;;;;;;;;;2.60;2.60;;;;;;;;5048630;28;8897;-83
2023/10/05 13:16:13;;;;;;;;;2.80;2.00;;;;;;;;5048660;28;8894;-85
2023/10/05 13:18:42;;;;;;;;;2.00;1.40;;;;;;;;5048014;28;8827;-82
2023/10/05 13:21:11;;;;;;;;;2.00;2.00;;;;;;;;5048265;28;8968;-81
2023/10/05 13:23:39;;;;;;;;;1.20;1.20;;;;;;;;5047318;28;8847;-83
2023/10/05 13:26:07;;;;;;;;;2.00;1.00;;;;;;;;5048391;28;8981;-83
2023/10/05 13:28:35;;;;;;;;;2.00;2.00;;;;;;;;5047923;28;8890;-72
2023/10/05 13:31:06;;;;;;;;;3.40;2.00;;;;;;;;5047663;28;8790;-82
2023/10/05 13:33:35;;;;;;;;;4.60;0.80;;;;;;;;5047944;28;8924;-78
2023/10/05 13:36:07;;;;;;;;;1.80;1.80;;;;;;;;5047778;28;8884;-75
2023/10/05 13:38:34;;;;;;;;;2.20;1.00;;;;;;;;5050289;28;8843;-74
2023/10/05 13:43:52;;;;;;;;;0.20;0.20;;;;;;;;5045802;28;8904;-79
2023/10/05 13:46:21;;;;;;;;;1.40;1.40;;;;;;;;5047078;28;8887;-77
2023/10/05 13:48:53;;;;;;;;;3.20;1.60;;;;;;;;5047321;28;8858;-80
2023/10/05 13:51:22;;;;;;;;;0.20;0.20;;;;;;;;5059210;28;8863;-79
2023/10/05 13:53:54;;;;;;;;;0.80;0.20;;;;;;;;5047587;28;8871;-76
2023/10/05 13:56:27;;;;;;;;;1.20;1.20;;;;;;;;5035982;28;9666;-80
2023/10/05 13:59:01;;;;;;;;;1.20;1.20;;;;;;;;5047119;28;8863;-77
2023/10/05 14:01:38;;;;;;;;;1.00;1.00;;;;;;;;5047734;28;8882;-79
2023/10/05 14:04:06;;;;;;;;;2.00;2.00;;;;;;;;5050912;28;8897;-77
2023/10/05 14:06:36;;;;;;;;;4.00;2.00;;;;;;;;5046637;28;8863;-77
2023/10/05 14:09:05;;;;;;;;;1.80;1.80;;;;;;;;5048173;28;9602;-76
2023/10/05 14:11:33;;;;;;;;;2.00;2.00;;;;;;;;5051352;28;8906;-77
2023/10/05 14:14:03;;;;;;;;;0.20;0.20;;;;;;;;5046841;28;8855;-74
2023/10/05 14:16:34;;;;;;;;;1.40;1.40;;;;;;;;5048082;28;8863;-80
2023/10/05 14:19:04;;;;;;;;;1.20;1.20;;;;;;;;5048234;28;8887;-75
2023/10/05 14:21:31;;;;;;;;;3.00;1.20;;;;;;;;5049495;28;8859;-73
2023/10/05 14:23:58;;;;;;;;;0.60;0.60;;;;;;;;5048091;28;8840;-73
2023/10/05 14:26:27;;;;;;;;;0.20;0.20;;;;;;;;5049871;28;8880;-80
2023/10/05 14:28:55;;;;;;;;;0.80;0.80;;;;;;;;5051278;28;8994;-79
2023/10/05 14:31:24;;;;;;;;;1.20;1.20;;;;;;;;5050778;28;8857;-73
2023/10/05 14:33:51;;;;;;;;;1.00;1.00;;;;;;;;5047145;28;8859;-84
2023/10/05 14:36:20;;;;;;;;;0.60;0.60;;;;;;;;5046761;28;8855;-85
2023/10/05 14:38:48;;;;;;;;;2.20;1.00;;;;;;;;5047486;28;8851;-83
2023/10/05 14:41:15;;;;;;;;;1.20;1.00;;;;;;;;5050213;28;8847;-84
2023/10/05 14:43:44;;;;;;;;;1.40;1.40;;;;;;;;5051906;28;8846;-76
2023/10/05 14:46:14;;;;;;;;;1.00;1.00;;;;;;;;5048456;28;8942;-83
2023/10/05 14:48:43;;;;;;;;;3.00;1.00;;;;;;;;5051417;28;8867;-84
2023/10/05 14:51:15;;;;;;;;;1.40;1.40;;;;;;;;5049418;28;8962;-82
2023/10/05 14:53:43;;;;;;;;;1.20;1.20;;;;;;;;5048161;28;8863;-81
2023/10/05 14:56:12;;;;;;;;;1.80;1.80;;;;;;;;5050407;28;8874;-78
2023/10/05 14:58:39;;;;;;;;;3.00;1.40;;;;;;;;5050016;28;8843;-82
2023/10/05 15:01:08;;;;;;;;;2.00;0.40;;;;;;;;5050102;28;8791;-80
2023/10/05 15:03:35;;;;;;;;;0.60;0.60;;;;;;;;5050414;28;8858;-77
2023/10/05 15:06:04;;;;;;;;;1.00;1.00;;;;;;;;5050224;28;8843;-79
2023/10/05 15:08:32;;;;;;;;;2.60;2.60;;;;;;;;5050706;28;8847;-75
2023/10/05 15:11:00;;;;;;;;;1.20;1.20;;;;;;;;5050473;28;8850;-77
2023/10/05 15:13:27;;;;;;;;;1.20;1.20;;;;;;;;5052647;28;8847;-76
2023/10/05 15:15:54;;;;;;;;;1.20;1.20;;;;;;;;5054101;28;8889;-80
2023/10/05 15:18:22;;;;;;;;;1.40;1.40;;;;;;;;5051161;28;9025;-80